createdAt,value
2023-05-06T00:00:37.639Z,4.45
2023-05-06T00:01:39.511Z,4.82
2023-05-06T00:02:41.986Z,4.97
2023-05-06T00:03:43.961Z,4.88
2023-05-06T00:04:45.807Z,4.40
2023-05-06T00:05:47.600Z,4.20
2023-05-06T00:06:49.548Z,4.55
2023-05-06T00:07:51.551Z,5.22
2023-05-06T00:08:53.479Z,4.18
2023-05-06T00:09:55.042Z,4.82
2023-05-06T00:10:56.603Z,3.78
2023-05-06T00:11:58.516Z,4.75
2023-05-06T00:13:00.202Z,5.10
2023-05-06T00:14:03.935Z,5.00
2023-05-06T00:15:06.058Z,4.25
2023-05-06T00:16:08.241Z,4.85
2023-05-06T00:17:10.569Z,4.05
2023-05-06T00:18:12.442Z,4.82
2023-05-06T00:19:14.144Z,4.65
2023-05-06T00:20:15.806Z,4.10
2023-05-06T00:21:17.503Z,4.38
2023-05-06T00:22:19.221Z,4.82
2023-05-06T00:23:20.762Z,4.50
2023-05-06T00:24:22.436Z,4.57
2023-05-06T00:25:24.154Z,4.63
2023-05-06T00:26:25.703Z,4.57
2023-05-06T00:27:28.620Z,4.90
2023-05-06T00:28:30.247Z,4.53
2023-05-06T00:29:31.969Z,4.47
2023-05-06T00:30:33.890Z,4.80
2023-05-06T00:31:35.782Z,4.35
2023-05-06T00:32:37.868Z,5.88
2023-05-06T00:33:39.806Z,4.55
2023-05-06T00:34:41.511Z,4.55
2023-05-06T00:35:43.264Z,4.82
2023-05-06T00:36:44.941Z,5.03
2023-05-06T00:37:46.965Z,4.95
2023-05-06T00:38:49.616Z,4.82
2023-05-06T00:39:51.228Z,4.55
2023-05-06T00:40:52.931Z,4.30
2023-05-06T00:41:59.582Z,5.30
2023-05-06T00:43:01.226Z,5.20
2023-05-06T00:44:02.928Z,4.60
2023-05-06T00:45:06.380Z,4.60
2023-05-06T00:46:11.413Z,4.32
2023-05-06T00:47:13.206Z,5.30
2023-05-06T00:49:18.453Z,4.40
2023-05-06T00:50:21.821Z,5.10
2023-05-06T00:51:23.634Z,4.90
2023-05-06T00:52:26.222Z,4.95
2023-05-06T00:53:27.984Z,5.00
2023-05-06T00:54:30.841Z,4.40
2023-05-06T00:55:32.563Z,4.40
2023-05-06T00:56:34.936Z,5.32
2023-05-06T00:57:36.564Z,4.47
2023-05-06T00:58:38.645Z,4.07
2023-05-06T00:59:40.391Z,4.28
2023-05-06T01:00:42.411Z,4.90
2023-05-06T01:01:44.021Z,4.70
2023-05-06T01:02:48.040Z,5.43
2023-05-06T01:03:50.275Z,5.03
2023-05-06T01:04:52.318Z,5.45
2023-05-06T01:06:33.269Z,5.13
2023-05-06T01:07:46.426Z,4.25
2023-05-06T01:09:31.948Z,4.82
2023-05-06T01:10:50.040Z,4.65
2023-05-06T01:12:20.132Z,5.22
2023-05-06T01:13:28.819Z,4.60
2023-05-06T01:14:46.662Z,4.55
2023-05-06T01:15:54.529Z,4.28
2023-05-06T01:17:03.515Z,4.60
2023-05-06T01:19:29.386Z,5.20
2023-05-06T01:20:33.159Z,5.00
2023-05-06T01:21:37.945Z,5.20
2023-05-06T01:22:39.771Z,4.88
2023-05-06T01:23:52.561Z,5.68
2023-05-06T01:24:54.122Z,5.05
2023-05-06T01:25:56.895Z,5.68
2023-05-06T01:26:58.480Z,5.50
2023-05-06T01:28:00.767Z,5.38
2023-05-06T01:29:03.971Z,5.07
2023-05-06T01:30:06.424Z,4.70
2023-05-06T01:31:13.953Z,5.03
2023-05-06T01:32:25.419Z,5.40
2023-05-06T01:33:37.168Z,5.60
2023-05-06T01:34:49.709Z,4.95
2023-05-06T01:36:08.894Z,5.53
2023-05-06T01:37:28.684Z,5.28
2023-05-06T01:38:57.012Z,5.00
2023-05-06T01:40:00.624Z,5.60
2023-05-06T01:41:02.987Z,5.32
2023-05-06T01:42:07.300Z,5.20
2023-05-06T01:43:13.168Z,4.90
2023-05-06T01:44:17.798Z,5.32
2023-05-06T01:45:21.769Z,5.72
2023-05-06T01:46:24.612Z,5.28
2023-05-06T01:47:26.663Z,5.38
2023-05-06T01:48:36.484Z,5.90
2023-05-06T01:49:38.376Z,5.57
2023-05-06T01:50:40.991Z,5.50
2023-05-06T01:51:50.806Z,5.47
2023-05-06T01:53:00.005Z,5.40
2023-05-06T01:54:02.622Z,5.28
2023-05-06T01:55:04.785Z,5.55
2023-05-06T01:56:06.615Z,4.68
2023-05-06T01:57:08.384Z,5.18
2023-05-06T01:58:10.083Z,5.50
2023-05-06T01:59:11.855Z,5.00
2023-05-06T02:00:13.599Z,5.13
2023-05-06T02:01:15.598Z,4.95
2023-05-06T02:02:17.969Z,4.68
2023-05-06T02:03:20.332Z,5.20
2023-05-06T02:04:25.914Z,5.10
2023-05-06T02:05:28.086Z,4.93
2023-05-06T02:06:32.382Z,5.05
2023-05-06T02:07:34.463Z,4.65
2023-05-06T02:08:36.093Z,4.63
2023-05-06T02:09:38.936Z,4.60
2023-05-06T02:10:40.902Z,4.75
2023-05-06T02:11:45.973Z,5.00
2023-05-06T02:12:49.000Z,4.65
2023-05-06T02:13:50.952Z,4.78
2023-05-06T02:14:53.400Z,4.88
2023-05-06T02:15:56.644Z,4.63
2023-05-06T02:17:03.748Z,4.72
2023-05-06T02:18:05.979Z,5.10
2023-05-06T02:19:08.112Z,4.78
2023-05-06T02:20:10.353Z,4.85
2023-05-06T02:21:12.039Z,4.43
2023-05-06T02:22:13.946Z,5.05
2023-05-06T02:23:15.812Z,5.10
2023-05-06T02:24:18.010Z,4.80
2023-05-06T02:25:20.089Z,4.55
2023-05-06T02:26:21.688Z,5.10
2023-05-06T02:27:23.882Z,4.90
2023-05-06T02:28:25.911Z,5.20
2023-05-06T02:29:27.827Z,5.00
2023-05-06T02:30:31.064Z,5.10
2023-05-06T02:31:33.185Z,5.00
2023-05-06T02:32:36.135Z,4.88
2023-05-06T02:33:38.746Z,4.68
2023-05-06T02:34:40.566Z,4.50
2023-05-06T02:35:42.703Z,4.63
2023-05-06T02:36:47.360Z,5.07
2023-05-06T02:37:50.422Z,4.90
2023-05-06T02:38:52.879Z,5.35
2023-05-06T02:39:54.692Z,4.93
2023-05-06T02:40:56.537Z,4.95
2023-05-06T02:41:58.496Z,5.20
2023-05-06T02:43:00.591Z,5.13
2023-05-06T02:44:03.006Z,5.22
2023-05-06T02:45:06.953Z,4.90
2023-05-06T02:46:08.945Z,5.55
2023-05-06T02:47:10.911Z,4.72
2023-05-06T02:48:13.174Z,4.88
2023-05-06T02:49:18.902Z,5.65
2023-05-06T02:50:21.196Z,5.43
2023-05-06T02:51:23.723Z,5.05
2023-05-06T02:52:25.574Z,5.55
2023-05-06T02:53:27.446Z,5.10
2023-05-06T02:54:29.164Z,5.78
2023-05-06T02:55:30.845Z,4.95
2023-05-06T02:56:35.330Z,5.20
2023-05-06T02:57:37.225Z,4.97
2023-05-06T02:58:38.800Z,4.95
2023-05-06T02:59:40.583Z,5.45
2023-05-06T03:00:42.312Z,5.13
2023-05-06T03:01:44.176Z,5.03
2023-05-06T03:02:45.998Z,5.60
2023-05-06T03:03:48.673Z,5.20
2023-05-06T03:04:50.958Z,5.43
2023-05-06T03:05:53.007Z,5.00
2023-05-06T03:06:54.913Z,5.90
2023-05-06T03:07:56.810Z,5.03
2023-05-06T03:08:58.608Z,4.82
2023-05-06T03:10:01.380Z,4.72
2023-05-06T03:11:08.227Z,4.70
2023-05-06T03:12:11.917Z,5.03
2023-05-06T03:13:15.005Z,4.80
2023-05-06T03:14:16.846Z,5.43
2023-05-06T03:15:18.839Z,5.70
2023-05-06T03:16:20.585Z,5.45
2023-05-06T03:17:25.981Z,5.32
2023-05-06T03:18:30.919Z,5.30
2023-05-06T03:19:34.819Z,5.10
2023-05-06T03:20:36.915Z,5.65
2023-05-06T03:21:39.093Z,4.95
2023-05-06T03:22:42.546Z,5.07
2023-05-06T03:23:51.830Z,4.95
2023-05-06T03:24:58.824Z,5.18
2023-05-06T03:26:05.506Z,5.10
2023-05-06T03:27:08.603Z,5.50
2023-05-06T03:28:11.759Z,5.78
2023-05-06T03:29:14.945Z,4.93
2023-05-06T03:30:18.862Z,5.65
2023-05-06T03:31:22.186Z,5.95
2023-05-06T03:32:24.008Z,5.80
2023-05-06T03:33:26.836Z,5.70
2023-05-06T03:34:29.001Z,5.10
2023-05-06T03:35:31.259Z,5.18
2023-05-06T03:36:35.596Z,5.07
2023-05-06T03:37:37.335Z,5.20
2023-05-06T03:38:39.743Z,5.20
2023-05-06T03:39:43.303Z,5.30
2023-05-06T03:40:45.094Z,4.88
2023-05-06T03:41:48.623Z,5.20
2023-05-06T03:42:50.904Z,5.15
2023-05-06T03:43:54.196Z,5.45
2023-05-06T03:44:58.122Z,5.45
2023-05-06T03:46:00.284Z,4.82
2023-05-06T03:47:01.884Z,5.30
2023-05-06T03:48:06.424Z,5.47
2023-05-06T03:49:10.528Z,5.43
2023-05-06T03:50:13.026Z,5.57
2023-05-06T03:51:15.652Z,5.45
2023-05-06T03:52:18.087Z,5.50
2023-05-06T03:53:20.042Z,5.55
2023-05-06T03:54:23.445Z,5.63
2023-05-06T03:55:25.038Z,5.40
2023-05-06T03:56:26.764Z,5.47
2023-05-06T03:57:30.549Z,6.03
2023-05-06T03:58:32.757Z,5.40
2023-05-06T03:59:35.471Z,5.47
2023-05-06T04:00:38.921Z,5.57
2023-05-06T04:01:42.065Z,5.53
2023-05-06T04:02:45.052Z,5.13
2023-05-06T04:03:54.722Z,5.82
2023-05-06T04:04:58.048Z,5.63
2023-05-06T04:05:59.806Z,5.32
2023-05-06T04:07:03.771Z,5.65
2023-05-06T04:08:05.720Z,5.45
2023-05-06T04:09:07.684Z,5.78
2023-05-06T04:10:11.972Z,5.75
2023-05-06T04:11:15.821Z,6.00
2023-05-06T04:12:17.584Z,5.78
2023-05-06T04:13:20.627Z,6.05
2023-05-06T04:14:22.717Z,5.45
2023-05-06T04:15:24.579Z,5.30
2023-05-06T04:16:26.666Z,5.05
2023-05-06T04:17:28.459Z,5.75
2023-05-06T04:18:30.649Z,6.18
2023-05-06T04:19:40.097Z,5.63
2023-05-06T04:20:41.703Z,5.38
2023-05-06T04:21:43.698Z,6.38
2023-05-06T04:22:46.859Z,5.65
2023-05-06T04:23:49.170Z,5.97
2023-05-06T04:24:55.298Z,5.57
2023-05-06T04:25:57.857Z,5.80
2023-05-06T04:27:02.480Z,6.38
2023-05-06T04:28:04.547Z,6.88
2023-05-06T04:29:07.035Z,6.50
2023-05-06T04:30:14.788Z,5.60
2023-05-06T04:31:16.678Z,5.88
2023-05-06T04:32:21.555Z,5.85
2023-05-06T04:33:25.050Z,6.40
2023-05-06T04:34:28.879Z,5.72
2023-05-06T04:35:34.397Z,5.93
2023-05-06T04:36:37.984Z,5.60
2023-05-06T04:38:07.221Z,5.70
2023-05-06T04:39:10.494Z,6.05
2023-05-06T04:40:13.915Z,5.25
2023-05-06T04:41:18.035Z,5.97
2023-05-06T04:42:21.981Z,5.30
2023-05-06T04:43:31.138Z,5.90
2023-05-06T04:44:41.908Z,6.00
2023-05-06T04:45:50.994Z,6.18
2023-05-06T04:46:57.227Z,6.38
2023-05-06T04:47:58.973Z,5.78
2023-05-06T04:49:00.734Z,6.05
2023-05-06T04:50:02.729Z,6.18
2023-05-06T04:51:05.666Z,5.85
2023-05-06T04:52:08.390Z,6.30
2023-05-06T04:53:10.592Z,6.30
2023-05-06T04:54:12.377Z,6.25
2023-05-06T04:55:15.377Z,6.30
2023-05-06T04:56:22.590Z,6.18
2023-05-06T04:57:24.951Z,6.50
2023-05-06T04:58:28.803Z,6.22
2023-05-06T04:59:31.911Z,6.13
2023-05-06T05:00:35.477Z,6.32
2023-05-06T05:01:38.958Z,5.90
2023-05-06T05:02:40.705Z,7.00
2023-05-06T05:03:46.249Z,6.38
2023-05-06T05:04:48.679Z,6.55
2023-05-06T05:05:50.788Z,6.38
2023-05-06T05:06:54.900Z,5.93
2023-05-06T05:07:56.630Z,6.20
2023-05-06T05:09:00.186Z,6.38
2023-05-06T05:10:02.981Z,6.00
2023-05-06T05:11:07.083Z,6.75
2023-05-06T05:12:09.855Z,5.72
2023-05-06T05:13:15.523Z,6.00
2023-05-06T05:14:18.769Z,6.78
2023-05-06T05:15:21.280Z,5.82
2023-05-06T05:16:23.752Z,6.45
2023-05-06T05:17:26.070Z,6.30
2023-05-06T05:18:29.181Z,5.97
2023-05-06T05:19:35.086Z,6.65
2023-05-06T05:20:37.258Z,6.90
2023-05-06T05:21:40.179Z,5.75
2023-05-06T05:22:43.996Z,6.43
2023-05-06T05:23:45.623Z,6.07
2023-05-06T05:24:47.410Z,6.13
2023-05-06T05:25:49.067Z,6.72
2023-05-06T05:26:50.844Z,6.30
2023-05-06T05:27:53.603Z,5.57
2023-05-06T05:28:55.271Z,5.75
2023-05-06T05:29:57.688Z,6.47
2023-05-06T05:31:06.077Z,5.88
2023-05-06T05:32:10.695Z,6.32
2023-05-06T05:33:12.676Z,6.07
2023-05-06T05:34:15.175Z,6.70
2023-05-06T05:35:18.481Z,6.70
2023-05-06T05:36:21.369Z,6.40
2023-05-06T05:37:25.770Z,6.18
2023-05-06T05:38:27.720Z,6.80
2023-05-06T05:39:29.626Z,5.88
2023-05-06T05:40:31.304Z,5.90
2023-05-06T05:41:33.067Z,6.15
2023-05-06T05:42:35.465Z,6.38
2023-05-06T05:43:42.774Z,5.47
2023-05-06T05:44:44.499Z,6.32
2023-05-06T05:45:46.383Z,5.47
2023-05-06T05:46:48.667Z,6.13
2023-05-06T05:47:54.607Z,5.85
2023-05-06T05:48:57.614Z,6.10
2023-05-06T05:49:59.359Z,5.38
2023-05-06T05:51:03.714Z,5.85
2023-05-06T05:52:05.415Z,5.72
2023-05-06T05:53:07.226Z,6.50
2023-05-06T05:54:11.186Z,6.07
2023-05-06T05:55:15.778Z,5.88
2023-05-06T05:56:19.986Z,6.32
2023-05-06T05:57:23.493Z,6.13
2023-05-06T05:58:26.735Z,6.65
2023-05-06T05:59:33.025Z,5.95
2023-05-06T06:00:38.321Z,6.10
2023-05-06T06:01:45.979Z,5.53
2023-05-06T06:02:48.665Z,6.57
2023-05-06T06:03:56.342Z,6.80
2023-05-06T06:04:58.491Z,6.30
2023-05-06T06:06:01.162Z,5.60
2023-05-06T06:07:03.330Z,6.28
2023-05-06T06:08:09.089Z,6.82
2023-05-06T06:09:11.039Z,6.47
2023-05-06T06:10:15.412Z,6.18
2023-05-06T06:11:19.035Z,6.50
2023-05-06T06:12:20.835Z,6.25
2023-05-06T06:13:22.704Z,6.22
2023-05-06T06:14:24.411Z,7.35
2023-05-06T06:15:26.237Z,6.55
2023-05-06T06:16:29.451Z,6.47
2023-05-06T06:17:31.628Z,6.38
2023-05-06T06:18:33.716Z,5.85
2023-05-06T06:19:35.584Z,6.40
2023-05-06T06:20:37.586Z,6.00
2023-05-06T06:21:39.613Z,8.93
2023-05-06T06:22:41.534Z,7.28
2023-05-06T06:23:43.511Z,12.80
2023-05-06T06:24:45.634Z,11.40
2023-05-06T06:25:47.517Z,7.10
2023-05-06T06:26:49.491Z,8.20
2023-05-06T06:27:51.551Z,7.30
2023-05-06T06:28:53.226Z,6.63
2023-05-06T06:29:54.921Z,7.32
2023-05-06T06:30:56.547Z,6.10
2023-05-06T06:31:59.150Z,6.30
2023-05-06T06:33:01.577Z,7.30
2023-05-06T06:34:08.944Z,6.72
2023-05-06T06:35:10.744Z,7.25
2023-05-06T06:36:12.739Z,6.45
2023-05-06T06:37:16.256Z,6.10
2023-05-06T06:38:17.997Z,7.13
2023-05-06T06:39:19.868Z,6.93
2023-05-06T06:40:22.690Z,6.40
2023-05-06T06:41:24.592Z,6.43
2023-05-06T06:42:27.253Z,6.22
2023-05-06T06:43:43.433Z,5.82
2023-05-06T06:44:51.543Z,6.00
2023-05-06T06:45:53.251Z,5.90
2023-05-06T06:46:55.002Z,5.80
2023-05-06T06:47:56.856Z,6.80
2023-05-06T06:48:58.878Z,5.70
2023-05-06T06:50:00.443Z,5.97
2023-05-06T06:51:03.590Z,5.75
2023-05-06T06:52:05.934Z,5.80
2023-05-06T06:53:07.639Z,6.13
2023-05-06T06:54:09.376Z,6.07
2023-05-06T06:55:11.641Z,6.20
2023-05-06T06:56:13.701Z,6.18
2023-05-06T06:57:15.316Z,5.85
2023-05-06T06:58:16.858Z,6.15
2023-05-06T06:59:18.890Z,6.20
2023-05-06T07:00:20.514Z,6.60
2023-05-06T07:01:22.200Z,5.82
2023-05-06T07:02:23.967Z,6.88
2023-05-06T07:03:25.627Z,6.68
2023-05-06T07:04:27.324Z,6.35
2023-05-06T07:05:31.460Z,6.10
2023-05-06T07:06:33.107Z,6.43
2023-05-06T07:07:34.874Z,6.40
2023-05-06T07:08:36.537Z,6.65
2023-05-06T07:09:40.186Z,5.90
2023-05-06T07:10:41.976Z,6.22
2023-05-06T07:11:43.744Z,6.53
2023-05-06T07:12:45.683Z,6.93
2023-05-06T07:13:47.514Z,6.03
2023-05-06T07:14:49.604Z,6.25
2023-05-06T07:15:51.218Z,6.35
2023-05-06T07:16:52.953Z,6.75
2023-05-06T07:17:54.802Z,6.75
2023-05-06T07:18:56.580Z,6.50
2023-05-06T07:19:58.272Z,6.40
2023-05-06T07:20:59.986Z,5.63
2023-05-06T07:22:02.924Z,5.78
2023-05-06T07:23:04.763Z,5.85
2023-05-06T07:24:06.787Z,6.50
2023-05-06T07:25:09.473Z,6.00
2023-05-06T07:26:11.457Z,6.68
2023-05-06T07:27:13.090Z,5.45
2023-05-06T07:28:15.632Z,5.57
2023-05-06T07:29:17.282Z,6.20
2023-05-06T07:30:21.691Z,6.05
2023-05-06T07:31:24.799Z,5.80
2023-05-06T07:32:26.586Z,5.43
2023-05-06T07:33:28.830Z,5.68
2023-05-06T07:34:30.638Z,5.47
2023-05-06T07:35:32.729Z,5.10
2023-05-06T07:36:40.356Z,5.20
2023-05-06T07:37:42.568Z,5.00
2023-05-06T07:38:44.227Z,5.50
2023-05-06T07:39:46.014Z,5.80
2023-05-06T07:40:47.887Z,5.22
2023-05-06T07:41:49.625Z,5.50
2023-05-06T07:42:51.301Z,4.95
2023-05-06T07:43:53.056Z,4.80
2023-05-06T07:44:54.869Z,4.70
2023-05-06T07:46:02.678Z,5.03
2023-05-06T07:47:04.595Z,5.33
2023-05-06T07:48:06.532Z,5.82
2023-05-06T07:49:08.197Z,5.65
2023-05-06T07:50:10.545Z,5.78
2023-05-06T07:51:12.370Z,5.30
2023-05-06T07:52:16.274Z,5.15
2023-05-06T07:53:17.952Z,5.43
2023-05-06T07:54:19.713Z,4.60
2023-05-06T07:55:21.375Z,5.00
2023-05-06T07:56:23.069Z,5.18
2023-05-06T07:57:24.756Z,5.63
2023-05-06T07:58:26.407Z,5.97
2023-05-06T07:59:28.005Z,5.43
2023-05-06T08:00:29.784Z,5.60
2023-05-06T08:01:31.615Z,6.25
2023-05-06T08:02:33.362Z,5.88
2023-05-06T08:03:35.971Z,6.28
2023-05-06T08:04:37.945Z,6.07
2023-05-06T08:05:39.770Z,6.07
2023-05-06T08:06:41.458Z,5.32
2023-05-06T08:07:43.115Z,6.18
2023-05-06T08:08:46.588Z,5.20
2023-05-06T08:09:48.260Z,5.40
2023-05-06T08:10:49.938Z,6.43
2023-05-06T08:11:51.538Z,6.32
2023-05-06T08:12:53.258Z,6.40
2023-05-06T08:13:54.943Z,5.70
2023-05-06T08:14:56.583Z,5.68
2023-05-06T08:15:58.302Z,5.38
2023-05-06T08:17:00.003Z,5.13
2023-05-06T08:18:10.349Z,5.28
2023-05-06T08:19:22.908Z,5.07
2023-05-06T08:20:24.776Z,4.80
2023-05-06T08:21:26.566Z,5.30
2023-05-06T08:22:28.314Z,5.30
2023-05-06T08:23:31.398Z,6.00
2023-05-06T08:24:33.244Z,5.55
2023-05-06T08:25:34.902Z,4.72
2023-05-06T08:26:36.765Z,5.72
2023-05-06T08:27:38.448Z,5.50
2023-05-06T08:28:40.127Z,5.57
2023-05-06T08:29:41.939Z,5.88
2023-05-06T08:30:45.940Z,5.18
2023-05-06T08:31:47.756Z,5.20
2023-05-06T08:32:49.489Z,5.65
2023-05-06T08:33:53.864Z,5.30
2023-05-06T08:34:56.319Z,5.60
2023-05-06T08:35:58.863Z,5.00
2023-05-06T08:37:01.355Z,5.53
2023-05-06T08:38:03.162Z,7.05
2023-05-06T08:39:05.963Z,5.97
2023-05-06T08:40:20.417Z,5.70
2023-05-06T08:41:25.057Z,6.45
2023-05-06T08:42:30.325Z,5.60
2023-05-06T08:43:38.642Z,6.28
2023-05-06T08:44:40.828Z,7.13
2023-05-06T08:45:42.763Z,5.82
2023-05-06T08:46:45.888Z,5.50
2023-05-06T08:47:47.852Z,5.80
2023-05-06T08:48:49.549Z,6.00
2023-05-06T08:49:51.678Z,6.80
2023-05-06T08:50:54.757Z,6.45
2023-05-06T08:51:57.177Z,5.90
2023-05-06T08:53:01.616Z,6.63
2023-05-06T08:54:04.587Z,7.15
2023-05-06T08:55:07.341Z,7.20
2023-05-06T08:56:13.602Z,6.57
2023-05-06T08:57:15.850Z,6.20
2023-05-06T08:58:18.794Z,6.40
2023-05-06T08:59:24.923Z,6.15
2023-05-06T09:00:26.837Z,6.55
2023-05-06T09:01:29.115Z,6.63
2023-05-06T09:02:30.858Z,6.22
2023-05-06T09:03:32.900Z,6.40
2023-05-06T09:04:35.510Z,6.57
2023-05-06T09:05:37.179Z,6.47
2023-05-06T09:06:38.948Z,6.50
2023-05-06T09:07:40.868Z,6.40
2023-05-06T09:08:42.741Z,6.85
2023-05-06T09:09:44.787Z,6.18
2023-05-06T09:10:47.724Z,7.05
2023-05-06T09:11:55.086Z,6.10
2023-05-06T09:12:56.927Z,6.20
2023-05-06T09:14:18.809Z,6.53
2023-05-06T09:15:25.103Z,6.20
2023-05-06T09:16:30.872Z,6.38
2023-05-06T09:17:33.280Z,5.97
2023-05-06T09:18:37.234Z,6.10
2023-05-06T09:19:38.948Z,6.75
2023-05-06T09:20:45.558Z,6.55
2023-05-06T09:21:49.055Z,7.25
2023-05-06T09:22:50.716Z,5.85
2023-05-06T09:23:52.621Z,6.13
2023-05-06T09:24:58.905Z,6.18
2023-05-06T09:26:01.776Z,6.32
2023-05-06T09:27:03.952Z,6.72
2023-05-06T09:28:10.574Z,6.20
2023-05-06T09:29:12.695Z,6.43
2023-05-06T09:30:15.157Z,6.32
2023-05-06T09:31:17.439Z,6.43
2023-05-06T09:32:19.390Z,6.60
2023-05-06T09:33:21.715Z,6.07
2023-05-06T09:34:24.601Z,5.97
2023-05-06T09:35:29.278Z,7.57
2023-05-06T09:36:31.617Z,9.43
2023-05-06T09:37:33.222Z,6.85
2023-05-06T09:38:34.884Z,6.07
2023-05-06T09:39:36.550Z,6.85
2023-05-06T09:40:38.858Z,6.70
2023-05-06T09:41:40.693Z,6.75
2023-05-06T09:42:43.720Z,6.75
2023-05-06T09:43:48.385Z,7.25
2023-05-06T09:44:51.864Z,6.45
2023-05-06T09:45:54.015Z,6.13
2023-05-06T09:46:55.885Z,6.10
2023-05-06T09:47:58.853Z,6.93
2023-05-06T09:49:00.669Z,7.22
2023-05-06T09:50:03.908Z,6.93
2023-05-06T09:51:07.663Z,6.85
2023-05-06T09:52:09.996Z,5.90
2023-05-06T09:53:13.588Z,6.28
2023-05-06T09:54:17.477Z,6.55
2023-05-06T09:55:20.507Z,6.15
2023-05-06T09:56:23.614Z,6.68
2023-05-06T09:57:26.336Z,6.60
2023-05-06T09:58:29.735Z,7.28
2023-05-06T09:59:32.782Z,6.68
2023-05-06T10:00:35.509Z,6.40
2023-05-06T10:01:38.903Z,6.60
2023-05-06T10:02:41.650Z,6.85
2023-05-06T10:03:45.986Z,6.75
2023-05-06T10:04:49.943Z,8.00
2023-05-06T10:05:56.945Z,6.63
2023-05-06T10:07:00.898Z,7.25
2023-05-06T10:08:04.471Z,6.70
2023-05-06T10:09:07.680Z,7.18
2023-05-06T10:10:11.606Z,7.68
2023-05-06T10:11:14.672Z,7.53
2023-05-06T10:12:16.530Z,7.72
2023-05-06T10:13:20.650Z,7.53
2023-05-06T10:14:22.550Z,7.13
2023-05-06T10:15:25.914Z,7.68
2023-05-06T10:16:28.592Z,6.63
2023-05-06T10:17:31.776Z,6.63
2023-05-06T10:18:37.008Z,7.45
2023-05-06T10:19:44.957Z,7.00
2023-05-06T10:20:48.642Z,6.72
2023-05-06T10:21:57.948Z,6.82
2023-05-06T10:23:30.237Z,9.07
2023-05-06T10:24:36.852Z,8.30
2023-05-06T10:25:43.777Z,9.32
2023-05-06T10:26:46.770Z,9.32
2023-05-06T10:27:48.950Z,9.07
2023-05-06T10:28:53.576Z,10.05
2023-05-06T10:29:59.453Z,8.88
2023-05-06T10:31:04.721Z,8.80
2023-05-06T10:32:09.325Z,7.70
2023-05-06T10:33:12.226Z,8.50
2023-05-06T10:34:16.499Z,7.30
2023-05-06T10:35:47.400Z,7.95
2023-05-06T10:36:53.507Z,10.27
2023-05-06T10:37:56.507Z,8.30
2023-05-06T10:39:03.655Z,8.65
2023-05-06T10:40:06.781Z,11.27
2023-05-06T10:41:09.679Z,12.52
2023-05-06T10:42:11.483Z,11.50
2023-05-06T10:43:30.859Z,8.98
2023-05-06T10:44:57.633Z,9.73
2023-05-06T10:46:05.498Z,7.75
2023-05-06T10:47:09.082Z,8.57
2023-05-06T10:48:10.754Z,8.98
2023-05-06T10:49:13.809Z,14.85
2023-05-06T10:50:26.401Z,10.70
2023-05-06T10:51:28.805Z,8.25
2023-05-06T10:52:46.667Z,9.63
2023-05-06T10:53:59.891Z,10.65
2023-05-06T10:55:01.469Z,8.43
2023-05-06T10:56:09.498Z,9.07
2023-05-06T10:57:11.469Z,9.00
2023-05-06T10:58:15.045Z,8.65
2023-05-06T10:59:24.530Z,8.10
2023-05-06T11:00:26.531Z,8.13
2023-05-06T11:01:28.471Z,7.10
2023-05-06T11:02:30.969Z,7.97
2023-05-06T11:03:32.792Z,8.48
2023-05-06T11:04:35.440Z,8.20
2023-05-06T11:05:50.218Z,7.07
2023-05-06T11:06:53.612Z,6.93
2023-05-06T11:08:09.109Z,7.75
2023-05-06T11:09:17.901Z,6.90
2023-05-06T11:11:57.747Z,6.13
2023-05-06T11:13:19.373Z,7.32
2023-05-06T11:14:30.832Z,7.15
2023-05-06T11:15:40.420Z,6.82
2023-05-06T11:16:49.516Z,7.47
2023-05-06T11:17:52.517Z,6.70
2023-05-06T11:18:55.092Z,6.95
2023-05-06T11:20:19.763Z,7.57
2023-05-06T11:21:21.353Z,6.70
2023-05-06T11:22:39.107Z,6.60
2023-05-06T11:23:52.444Z,8.48
2023-05-06T11:24:54.816Z,7.53
2023-05-06T11:25:58.720Z,7.05
2023-05-06T11:27:00.499Z,7.05
2023-05-06T11:28:07.590Z,6.55
2023-05-06T11:29:09.352Z,7.00
2023-05-06T11:30:14.514Z,7.20
2023-05-06T11:31:16.657Z,7.63
2023-05-06T11:32:23.081Z,7.65
2023-05-06T11:33:31.172Z,7.97
2023-05-06T11:34:35.270Z,6.78
2023-05-06T11:35:37.675Z,7.10
2023-05-06T11:36:51.536Z,7.53
2023-05-06T11:37:53.238Z,7.45
2023-05-06T11:38:56.374Z,7.60
2023-05-06T11:39:57.943Z,8.82
2023-05-06T11:41:01.005Z,8.15
2023-05-06T11:42:06.682Z,7.68
2023-05-06T11:43:15.129Z,8.38
2023-05-06T11:44:27.900Z,7.70
2023-05-06T11:45:46.582Z,8.15
2023-05-06T11:47:54.571Z,7.55
2023-05-06T11:48:56.405Z,8.77
2023-05-06T11:49:59.027Z,7.93
2023-05-06T11:51:00.824Z,8.50
2023-05-06T11:52:03.341Z,7.60
2023-05-06T11:53:05.057Z,8.70
2023-05-06T11:54:08.973Z,8.32
2023-05-06T11:55:11.829Z,7.22
2023-05-06T11:56:14.611Z,8.50
2023-05-06T11:57:16.550Z,7.93
2023-05-06T11:58:21.196Z,9.23
2023-05-06T11:59:30.353Z,7.55
2023-05-06T12:00:31.982Z,6.82
2023-05-06T12:01:33.641Z,8.18
2023-05-06T12:02:35.349Z,7.75
2023-05-06T12:03:37.137Z,8.48
2023-05-06T12:04:46.886Z,8.60
2023-05-06T12:05:49.878Z,8.23
2023-05-06T12:06:51.686Z,9.68
2023-05-06T12:07:53.520Z,9.82
2023-05-06T12:08:55.249Z,8.95
2023-05-06T12:09:59.012Z,8.48
2023-05-06T12:11:09.027Z,8.98
2023-05-06T12:12:12.479Z,8.45
2023-05-06T12:13:15.571Z,8.48
2023-05-06T12:14:20.246Z,7.95
2023-05-06T12:15:21.953Z,8.02
2023-05-06T12:16:25.495Z,8.23
2023-05-06T12:17:27.821Z,8.40
2023-05-06T12:18:30.254Z,9.30
2023-05-06T12:19:32.450Z,8.20
2023-05-06T12:20:34.840Z,7.68
2023-05-06T12:21:39.854Z,8.93
2023-05-06T12:22:41.848Z,8.45
2023-05-06T12:23:55.282Z,8.60
2023-05-06T12:24:57.733Z,8.80
2023-05-06T12:26:02.403Z,8.80
2023-05-06T12:27:04.241Z,8.35
2023-05-06T12:28:15.753Z,7.88
2023-05-06T12:29:17.929Z,7.82
2023-05-06T12:30:32.782Z,8.15
2023-05-06T12:31:35.250Z,8.85
2023-05-06T12:32:36.897Z,8.52
2023-05-06T12:33:46.488Z,9.27
2023-05-06T12:34:48.225Z,8.68
2023-05-06T12:35:54.840Z,9.32
2023-05-06T12:36:56.750Z,8.05
2023-05-06T12:38:12.240Z,8.82
2023-05-06T12:39:14.497Z,8.68
2023-05-06T12:40:16.988Z,8.88
2023-05-06T12:41:19.833Z,9.43
2023-05-06T12:42:22.907Z,8.45
2023-05-06T12:43:31.553Z,8.18
2023-05-06T12:44:37.947Z,8.27
2023-05-06T12:45:40.427Z,8.45
2023-05-06T12:46:50.940Z,8.27
2023-05-06T12:47:57.932Z,7.45
2023-05-06T12:49:01.239Z,8.88
2023-05-06T12:50:04.904Z,7.93
2023-05-06T12:51:20.631Z,8.52
2023-05-06T12:52:23.975Z,8.82
2023-05-06T12:53:33.520Z,8.85
2023-05-06T12:54:35.352Z,8.38
2023-05-06T12:55:42.350Z,8.50
2023-05-06T12:56:45.032Z,8.05
2023-05-06T12:57:47.290Z,8.60
2023-05-06T12:58:58.540Z,8.40
2023-05-06T13:00:00.133Z,7.72
2023-05-06T13:01:01.972Z,7.47
2023-05-06T13:02:05.027Z,7.70
2023-05-06T13:03:07.021Z,7.57
2023-05-06T13:04:08.706Z,7.95
2023-05-06T13:05:10.318Z,7.80
2023-05-06T13:06:14.745Z,6.95
2023-05-06T13:07:16.711Z,6.85
2023-05-06T13:08:18.629Z,6.78
2023-05-06T13:09:20.764Z,7.00
2023-05-06T13:10:22.613Z,7.75
2023-05-06T13:11:25.913Z,7.10
2023-05-06T13:12:27.713Z,7.70
2023-05-06T13:13:29.459Z,7.25
2023-05-06T13:14:31.527Z,6.50
2023-05-06T13:15:33.666Z,6.63
2023-05-06T13:16:35.480Z,6.85
2023-05-06T13:17:37.303Z,6.20
2023-05-06T13:18:39.141Z,6.70
2023-05-06T13:19:41.199Z,6.53
2023-05-06T13:20:43.520Z,7.15
2023-05-06T13:21:46.513Z,6.35
2023-05-06T13:22:54.394Z,6.55
2023-05-06T13:23:56.818Z,5.72
2023-05-06T13:24:58.444Z,5.50
2023-05-06T13:26:05.334Z,6.57
2023-05-06T13:27:07.740Z,6.07
2023-05-06T13:28:09.914Z,6.65
2023-05-06T13:29:12.001Z,7.22
2023-05-06T13:30:13.844Z,6.28
2023-05-06T13:31:15.549Z,6.97
2023-05-06T13:32:17.408Z,6.43
2023-05-06T13:33:19.008Z,7.35
2023-05-06T13:34:20.840Z,6.60
2023-05-06T13:35:23.082Z,7.68
2023-05-06T13:36:24.853Z,7.03
2023-05-06T13:37:26.497Z,7.18
2023-05-06T13:38:28.643Z,6.97
2023-05-06T13:39:30.787Z,8.63
2023-05-06T13:40:32.484Z,12.13
2023-05-06T13:41:34.375Z,8.10
2023-05-06T13:42:36.443Z,8.40
2023-05-06T13:43:38.009Z,7.82
2023-05-06T13:44:40.542Z,9.02
2023-05-06T13:45:43.927Z,8.88
2023-05-06T13:46:46.518Z,7.68
2023-05-06T13:47:48.175Z,8.45
2023-05-06T13:48:49.994Z,8.77
2023-05-06T13:49:51.716Z,9.85
2023-05-06T13:50:53.359Z,9.27
2023-05-06T13:51:54.990Z,8.73
2023-05-06T13:52:56.701Z,8.85
2023-05-06T13:53:58.360Z,9.75
2023-05-06T13:55:00.164Z,9.15
2023-05-06T13:56:01.893Z,9.18
2023-05-06T13:57:03.570Z,9.00
2023-05-06T13:58:06.106Z,10.05
2023-05-06T13:59:09.912Z,9.13
2023-05-06T14:00:12.885Z,10.20
2023-05-06T14:01:14.652Z,8.85
2023-05-06T14:02:16.909Z,9.60
2023-05-06T14:03:18.694Z,10.40
2023-05-06T14:04:20.372Z,9.93
2023-05-06T14:05:22.132Z,9.68
2023-05-06T14:06:23.718Z,9.93
2023-05-06T14:07:25.783Z,10.45
2023-05-06T14:08:27.555Z,9.93
2023-05-06T14:09:32.249Z,10.13
2023-05-06T14:10:33.874Z,11.52
2023-05-06T14:11:35.464Z,10.18
2023-05-06T14:12:37.202Z,9.00
2023-05-06T14:13:40.306Z,10.90